CLST,Max TemperatureF,Mean TemperatureF,Min TemperatureF,Max Dew PointF,MeanDew PointF,Min DewpointF,Max Humidity, Mean Humidity, Min Humidity, Max Sea Level PressureIn, Mean Sea Level PressureIn, Min Sea Level PressureIn, Max VisibilityMiles, Mean VisibilityMiles, Min VisibilityMiles, Max Wind SpeedMPH, Mean Wind SpeedMPH, Max Gust SpeedMPH,PrecipitationIn, CloudCover, Events, WindDirDegrees
2013-12-1,53,46,40,41,29,14,87,54,14,29.57,29.50,29.42,19,10,6,26,18,,0.00,4,,245
2013-12-2,47,40,34,37,33,21,93,69,30,29.60,29.48,29.21,19,8,4,37,14,45,0.00,7,Rain-Snow,228
2013-12-3,50,46,41,39,35,30,81,68,41,29.29,29.22,29.11,19,9,6,46,39,58,0.00,4,Rain,252
2013-12-4,47,42,38,34,28,21,81,56,26,29.83,29.57,29.27,19,9,6,31,23,,0.00,4,,227
2013-12-5,58,49,40,45,39,32,81,67,48,29.83,29.63,29.50,19,9,6,41,27,55,0.00,5,,250
2013-12-6,55,50,45,41,39,37,81,65,43,29.64,29.56,29.47,19,10,6,38,30,,0.02,4,Rain,240
2013-12-7,46,42,39,41,37,32,93,80,56,29.65,29.58,29.56,12,6,4,10,6,,0.04,7,Rain,144
2013-12-8,58,50,42,48,38,34,88,67,50,29.80,29.75,29.68,19,8,5,12,9,,0.00,7,Rain,116
2013-12-9,65,58,50,50,47,45,94,75,41,29.86,29.78,29.65,19,7,4,24,11,,0.02,7,Rain,294
2013-12-10,59,53,47,49,41,36,88,64,36,29.68,29.62,29.56,19,9,6,44,21,55,0.00,3,Rain,274
2013-12-11,61,54,47,46,44,42,87,67,45,29.71,29.61,29.44,19,9,5,37,21,51,0.00,5,Rain,269
2013-12-12,55,50,44,45,39,34,87,67,34,29.57,29.53,29.44,19,9,6,38,28,43,0.03,4,Rain,256
2013-12-13,53,48,42,45,39,36,87,72,52,29.56,29.33,29.15,19,8,5,46,23,59,0.04,5,Rain,275
2013-12-14,56,48,41,46,42,36,93,77,58,29.34,29.15,28.97,19,8,4,37,13,,0.02,5,Rain,283
2013-12-15,55,48,42,46,40,36,93,67,42,29.63,29.38,29.00,19,9,6,40,26,,0.08,5,Rain,244
2013-12-16,58,51,44,47,42,37,100,73,39,29.59,29.49,29.42,19,8,5,29,13,,0.00,6,Rain,279
2013-12-17,54,48,42,40,37,33,87,64,34,29.77,29.60,29.50,19,9,6,38,18,47,0.00,3,,252
2013-12-18,57,50,44,39,36,32,81,59,29,29.87,29.82,29.77,19,9,6,37,21,,0.00,4,Rain,254
2013-12-19,58,48,39,43,38,34,87,62,30,29.91,29.82,29.59,19,10,6,22,11,,0.02,3,,233
2013-12-20,59,53,47,45,40,35,93,61,32,29.61,29.43,29.39,19,7,5,47,21,61,0.01,4,Rain,295
2013-12-21,61,54,46,42,38,35,76,57,29,29.62,29.54,29.44,19,8,6,41,30,55,0.00,4,Rain,265
2013-12-22,59,50,41,39,38,34,87,60,31,29.76,29.71,29.59,19,8,6,28,18,30,0.01,5,,265
2013-12-23,53,47,41,45,38,28,87,67,33,29.77,29.60,29.42,19,8,1,40,19,52,0.03,5,Rain,262
2013-12-24,54,46,39,36,34,32,87,64,36,29.78,29.57,29.36,19,6,2,38,24,48,0.00,5,Rain,272
2013-12-25,51,46,40,39,34,30,81,62,34,29.33,29.20,29.12,19,9,5,38,25,50,23.62,3,Rain-Hail,262
2013-12-26,51,44,36,38,34,30,93,69,36,29.36,29.26,29.21,19,8,2,69,17,34,0.02,4,Rain,256
2013-12-27,51,44,36,36,32,28,87,62,32,29.52,29.48,29.39,19,7,6,32,19,37,0.00,3,Rain,241
2013-12-28,48,42,37,41,33,26,93,65,37,29.53,29.44,29.39,19,8,3,23,14,,0.00,6,Rain,311
2013-12-29,57,48,39,49,42,37,100,82,52,29.39,29.22,29.09,19,7,3,25,17,36,0.02,7,Rain,342
2013-12-30,55,49,42,45,38,28,87,68,25,29.30,29.16,29.06,19,8,6,26,15,,0.02,6,Rain,268
2013-12-31,50,44,39,38,35,27,93,67,38,29.33,29.25,29.18,19,8,2,21,13,,0.00,6,Rain,273